sensor_id;sensor_type;location;lat;lon;timestamp;pressure;altitude;pressure_sealevel;temperature;humidity
21623;BME280;10973;46.706;12.340;2023-04-06T00:01:05;87117.41;;;3.63;38.04
21623;BME280;10973;46.706;12.340;2023-04-06T00:03:32;87114.88;;;3.66;38.11
21623;BME280;10973;46.706;12.340;2023-04-06T00:05:59;87117.06;;;3.64;38.46
21623;BME280;10973;46.706;12.340;2023-04-06T00:08:27;87122.47;;;3.71;38.70
21623;BME280;10973;46.706;12.340;2023-04-06T00:10:54;87119.84;;;3.71;38.92
21623;BME280;10973;46.706;12.340;2023-04-06T00:13:22;87121.81;;;3.74;38.97
21623;BME280;10973;46.706;12.340;2023-04-06T00:15:49;87112.03;;;3.71;39.02
21623;BME280;10973;46.706;12.340;2023-04-06T00:18:16;87118.19;;;3.63;38.88
21623;BME280;10973;46.706;12.340;2023-04-06T00:20:43;87112.88;;;3.59;38.67
21623;BME280;10973;46.706;12.340;2023-04-06T00:23:11;87105.75;;;3.56;38.75
21623;BME280;10973;46.706;12.340;2023-04-06T00:25:38;87106.66;;;3.48;38.69
21623;BME280;10973;46.706;12.340;2023-04-06T00:28:05;87110.25;;;3.44;38.95
21623;BME280;10973;46.706;12.340;2023-04-06T00:30:33;87109.84;;;3.42;38.47
21623;BME280;10973;46.706;12.340;2023-04-06T00:33:00;87105.63;;;3.37;38.35
21623;BME280;10973;46.706;12.340;2023-04-06T00:35:27;87108.06;;;3.30;38.43
21623;BME280;10973;46.706;12.340;2023-04-06T00:37:54;87108.06;;;3.30;38.10
21623;BME280;10973;46.706;12.340;2023-04-06T00:40:22;87109.16;;;3.29;38.20
21623;BME280;10973;46.706;12.340;2023-04-06T00:42:49;87111.66;;;3.26;38.21
21623;BME280;10973;46.706;12.340;2023-04-06T00:45:17;87109.28;;;3.21;38.91
21623;BME280;10973;46.706;12.340;2023-04-06T00:47:44;87109.22;;;3.17;38.78
21623;BME280;10973;46.706;12.340;2023-04-06T00:50:11;87109.78;;;3.11;38.84
21623;BME280;10973;46.706;12.340;2023-04-06T00:52:38;87103.72;;;3.07;38.64
21623;BME280;10973;46.706;12.340;2023-04-06T00:55:06;87106.22;;;3.03;38.72
21623;BME280;10973;46.706;12.340;2023-04-06T00:57:33;87106.47;;;2.98;39.21
21623;BME280;10973;46.706;12.340;2023-04-06T01:00:01;87104.09;;;2.93;39.37
21623;BME280;10973;46.706;12.340;2023-04-06T01:02:28;87106.28;;;2.91;39.07
21623;BME280;10973;46.706;12.340;2023-04-06T01:04:56;87111.81;;;2.89;39.18
21623;BME280;10973;46.706;12.340;2023-04-06T01:07:23;87101.97;;;2.83;39.20
21623;BME280;10973;46.706;12.340;2023-04-06T01:09:56;87109.03;;;2.82;39.44
21623;BME280;10973;46.706;12.340;2023-04-06T01:12:24;87105.56;;;2.78;39.31
21623;BME280;10973;46.706;12.340;2023-04-06T01:14:51;87111.44;;;2.75;39.88
21623;BME280;10973;46.706;12.340;2023-04-06T01:17:19;87102.56;;;2.76;39.89
21623;BME280;10973;46.706;12.340;2023-04-06T01:19:46;87111.78;;;2.74;40.12
21623;BME280;10973;46.706;12.340;2023-04-06T01:22:17;87112.09;;;2.72;39.84
21623;BME280;10973;46.706;12.340;2023-04-06T01:24:45;87112.56;;;2.62;39.89
21623;BME280;10973;46.706;12.340;2023-04-06T01:27:13;87112.03;;;2.57;39.83
21623;BME280;10973;46.706;12.340;2023-04-06T01:29:40;87104.34;;;2.48;39.94
21623;BME280;10973;46.706;12.340;2023-04-06T01:32:08;87104.59;;;2.43;39.55
21623;BME280;10973;46.706;12.340;2023-04-06T01:34:35;87101.81;;;2.36;39.36
21623;BME280;10973;46.706;12.340;2023-04-06T01:37:02;87100.94;;;2.32;39.65
21623;BME280;10973;46.706;12.340;2023-04-06T01:39:29;87103.44;;;2.29;40.00
21623;BME280;10973;46.706;12.340;2023-04-06T01:41:57;87104.00;;;2.22;40.00
21623;BME280;10973;46.706;12.340;2023-04-06T01:44:24;87101.69;;;2.21;39.97
21623;BME280;10973;46.706;12.340;2023-04-06T01:46:51;87110.25;;;2.21;40.22
21623;BME280;10973;46.706;12.340;2023-04-06T01:49:18;87101.41;;;2.10;40.79
21623;BME280;10973;46.706;12.340;2023-04-06T01:51:46;87099.22;;;2.12;40.63
21623;BME280;10973;46.706;12.340;2023-04-06T01:54:13;87096.63;;;2.12;40.89
21623;BME280;10973;46.706;12.340;2023-04-06T01:56:40;87100.75;;;2.13;41.02
21623;BME280;10973;46.706;12.340;2023-04-06T01:59:07;87100.97;;;2.08;40.84
21623;BME280;10973;46.706;12.340;2023-04-06T02:01:35;87099.44;;;2.07;40.80
21623;BME280;10973;46.706;12.340;2023-04-06T02:04:02;87100.53;;;2.06;40.72
21623;BME280;10973;46.706;12.340;2023-04-06T02:06:30;87101.19;;;2.03;41.42
21623;BME280;10973;46.706;12.340;2023-04-06T02:08:57;87104.69;;;1.95;41.40
21623;BME280;10973;46.706;12.340;2023-04-06T02:11:24;87099.91;;;1.97;41.38
21623;BME280;10973;46.706;12.340;2023-04-06T02:13:51;87101.31;;;1.94;41.52
21623;BME280;10973;46.706;12.340;2023-04-06T02:16:18;87096.53;;;1.96;41.62
21623;BME280;10973;46.706;12.340;2023-04-06T02:18:46;87098.94;;;2.01;41.85
21623;BME280;10973;46.706;12.340;2023-04-06T02:21:13;87095.91;;;1.99;41.86
21623;BME280;10973;46.706;12.340;2023-04-06T02:23:40;87091.00;;;1.98;41.62
21623;BME280;10973;46.706;12.340;2023-04-06T02:26:07;87093.72;;;2.01;41.79
21623;BME280;10973;46.706;12.340;2023-04-06T02:28:34;87092.63;;;2.02;41.84
21623;BME280;10973;46.706;12.340;2023-04-06T02:31:02;87096.63;;;2.00;41.96
21623;BME280;10973;46.706;12.340;2023-04-06T02:33:29;87090.50;;;1.92;41.42
21623;BME280;10973;46.706;12.340;2023-04-06T02:35:57;87096.00;;;1.91;41.73
21623;BME280;10973;46.706;12.340;2023-04-06T02:38:24;87095.91;;;1.87;41.52
21623;BME280;10973;46.706;12.340;2023-04-06T02:40:51;87092.03;;;1.81;41.65
21623;BME280;10973;46.706;12.340;2023-04-06T02:43:19;87090.94;;;1.70;41.59
21623;BME280;10973;46.706;12.340;2023-04-06T02:45:46;87097.53;;;1.68;41.71
21623;BME280;10973;46.706;12.340;2023-04-06T02:48:14;87091.91;;;1.66;41.59
21623;BME280;10973;46.706;12.340;2023-04-06T02:50:41;87092.88;;;1.61;41.99
21623;BME280;10973;46.706;12.340;2023-04-06T02:53:08;87097.44;;;1.52;42.09
21623;BME280;10973;46.706;12.340;2023-04-06T02:55:35;87088.88;;;1.52;42.18
21623;BME280;10973;46.706;12.340;2023-04-06T02:58:02;87097.88;;;1.54;42.50
21623;BME280;10973;46.706;12.340;2023-04-06T03:00:30;87094.06;;;1.52;42.27
21623;BME280;10973;46.706;12.340;2023-04-06T03:02:57;87092.13;;;1.49;42.28
21623;BME280;10973;46.706;12.340;2023-04-06T03:05:24;87094.63;;;1.45;42.24
21623;BME280;10973;46.706;12.340;2023-04-06T03:07:51;87094.91;;;1.43;42.40
21623;BME280;10973;46.706;12.340;2023-04-06T03:10:19;87093.09;;;1.44;42.49
21623;BME280;10973;46.706;12.340;2023-04-06T03:12:46;87092.22;;;1.40;42.45
21623;BME280;10973;46.706;12.340;2023-04-06T03:15:14;87092.56;;;1.38;43.02
21623;BME280;10973;46.706;12.340;2023-04-06T03:17:41;87096.63;;;1.27;42.99
21623;BME280;10973;46.706;12.340;2023-04-06T03:20:08;87097.28;;;1.24;42.84
21623;BME280;10973;46.706;12.340;2023-04-06T03:22:36;87096.84;;;1.22;42.64
21623;BME280;10973;46.706;12.340;2023-04-06T03:25:04;87098.56;;;1.18;42.75
21623;BME280;10973;46.706;12.340;2023-04-06T03:27:31;87104.84;;;1.17;42.97
21623;BME280;10973;46.706;12.340;2023-04-06T03:29:58;87103.31;;;1.16;42.76
21623;BME280;10973;46.706;12.340;2023-04-06T03:32:25;87108.19;;;1.18;42.85
21623;BME280;10973;46.706;12.340;2023-04-06T03:34:52;87114.22;;;1.10;42.78
21623;BME280;10973;46.706;12.340;2023-04-06T03:37:20;87107.16;;;0.98;42.84
21623;BME280;10973;46.706;12.340;2023-04-06T03:39:47;87109.47;;;1.00;42.78
21623;BME280;10973;46.706;12.340;2023-04-06T03:42:14;87114.69;;;0.91;42.90
21623;BME280;10973;46.706;12.340;2023-04-06T03:44:41;87114.28;;;0.89;42.97
21623;BME280;10973;46.706;12.340;2023-04-06T03:47:08;87123.16;;;0.88;42.96
21623;BME280;10973;46.706;12.340;2023-04-06T03:49:36;87124.22;;;0.87;43.09
21623;BME280;10973;46.706;12.340;2023-04-06T03:52:05;87130.50;;;0.86;43.07
21623;BME280;10973;46.706;12.340;2023-04-06T03:54:32;87126.03;;;0.87;43.19
21623;BME280;10973;46.706;12.340;2023-04-06T03:57:00;87129.06;;;0.89;43.58
21623;BME280;10973;46.706;12.340;2023-04-06T03:59:27;87130.50;;;0.86;43.35
21623;BME280;10973;46.706;12.340;2023-04-06T04:01:54;87129.03;;;0.77;43.10
21623;BME280;10973;46.706;12.340;2023-04-06T04:04:22;87134.66;;;0.79;43.11
21623;BME280;10973;46.706;12.340;2023-04-06T04:06:49;87129.91;;;0.81;42.86
21623;BME280;10973;46.706;12.340;2023-04-06T04:09:16;87127.66;;;0.79;42.86
21623;BME280;10973;46.706;12.340;2023-04-06T04:11:45;87130.25;;;0.79;43.13
21623;BME280;10973;46.706;12.340;2023-04-06T04:14:12;87129.66;;;0.73;43.06
21623;BME280;10973;46.706;12.340;2023-04-06T04:16:40;87134.31;;;0.68;43.25
21623;BME280;10973;46.706;12.340;2023-04-06T04:19:07;87130.53;;;0.65;43.54
21623;BME280;10973;46.706;12.340;2023-04-06T04:21:46;87135.56;;;0.62;43.34
21623;BME280;10973;46.706;12.340;2023-04-06T04:24:13;87135.31;;;0.55;43.24
21623;BME280;10973;46.706;12.340;2023-04-06T04:26:41;87133.47;;;0.55;43.20
21623;BME280;10973;46.706;12.340;2023-04-06T04:29:08;87128.31;;;0.55;43.42
21623;BME280;10973;46.706;12.340;2023-04-06T04:31:36;87139.00;;;0.54;43.65
21623;BME280;10973;46.706;12.340;2023-04-06T04:34:04;87138.41;;;0.48;43.64
21623;BME280;10973;46.706;12.340;2023-04-06T04:36:31;87137.22;;;0.46;43.83
21623;BME280;10973;46.706;12.340;2023-04-06T04:38:58;87143.34;;;0.41;43.67
21623;BME280;10973;46.706;12.340;2023-04-06T04:41:26;87140.03;;;0.41;43.39
21623;BME280;10973;46.706;12.340;2023-04-06T04:43:53;87143.66;;;0.40;43.15
21623;BME280;10973;46.706;12.340;2023-04-06T04:46:20;87144.50;;;0.32;43.49
21623;BME280;10973;46.706;12.340;2023-04-06T04:48:48;87137.47;;;0.32;43.38
21623;BME280;10973;46.706;12.340;2023-04-06T04:51:15;87144.38;;;0.28;43.10
21623;BME280;10973;46.706;12.340;2023-04-06T04:53:42;87146.84;;;0.25;43.82
21623;BME280;10973;46.706;12.340;2023-04-06T04:56:10;87146.19;;;0.28;43.88
21623;BME280;10973;46.706;12.340;2023-04-06T04:58:37;87149.97;;;0.30;43.96
21623;BME280;10973;46.706;12.340;2023-04-06T05:01:05;87150.75;;;0.31;44.08
21623;BME280;10973;46.706;12.340;2023-04-06T05:03:33;87144.81;;;0.30;43.91
21623;BME280;10973;46.706;12.340;2023-04-06T05:06:01;87144.50;;;0.32;44.12
21623;BME280;10973;46.706;12.340;2023-04-06T05:08:28;87142.66;;;0.32;44.25
21623;BME280;10973;46.706;12.340;2023-04-06T05:10:55;87140.38;;;0.31;44.32
21623;BME280;10973;46.706;12.340;2023-04-06T05:13:23;87139.19;;;0.28;44.30
21623;BME280;10973;46.706;12.340;2023-04-06T05:15:50;87149.88;;;0.27;44.56
21623;BME280;10973;46.706;12.340;2023-04-06T05:18:17;87143.91;;;0.26;44.42
21623;BME280;10973;46.706;12.340;2023-04-06T05:20:44;87146.84;;;0.25;44.59
21623;BME280;10973;46.706;12.340;2023-04-06T05:23:12;87156.00;;;0.22;44.41
21623;BME280;10973;46.706;12.340;2023-04-06T05:25:42;87151.88;;;0.21;44.39
21623;BME280;10973;46.706;12.340;2023-04-06T05:28:10;87159.16;;;0.28;44.36
21623;BME280;10973;46.706;12.340;2023-04-06T05:30:37;87152.03;;;0.25;44.63
21623;BME280;10973;46.706;12.340;2023-04-06T05:33:04;87156.44;;;0.24;44.59
21623;BME280;10973;46.706;12.340;2023-04-06T05:35:32;87159.34;;;0.23;44.34
21623;BME280;10973;46.706;12.340;2023-04-06T05:37:59;87165.16;;;0.20;44.52
21623;BME280;10973;46.706;12.340;2023-04-06T05:40:26;87162.25;;;0.21;44.71
21623;BME280;10973;46.706;12.340;2023-04-06T05:42:54;87164.97;;;0.25;44.83
21623;BME280;10973;46.706;12.340;2023-04-06T05:45:21;87163.88;;;0.26;44.47
21623;BME280;10973;46.706;12.340;2023-04-06T05:47:48;87162.06;;;0.26;44.42
21623;BME280;10973;46.706;12.340;2023-04-06T05:50:16;87168.44;;;0.29;44.87
21623;BME280;10973;46.706;12.340;2023-04-06T05:52:43;87158.97;;;0.33;45.04
21623;BME280;10973;46.706;12.340;2023-04-06T05:55:11;87157.47;;;0.32;44.82
21623;BME280;10973;46.706;12.340;2023-04-06T05:57:38;87155.31;;;0.34;45.23
21623;BME280;10973;46.706;12.340;2023-04-06T06:00:10;87155.44;;;0.37;44.80
21623;BME280;10973;46.706;12.340;2023-04-06T06:02:45;87159.53;;;0.38;44.85
21623;BME280;10973;46.706;12.340;2023-04-06T06:05:16;87154.16;;;0.43;44.93
21623;BME280;10973;46.706;12.340;2023-04-06T06:07:43;87152.47;;;0.47;44.68
21623;BME280;10973;46.706;12.340;2023-04-06T06:10:11;87155.63;;;0.53;44.71
21623;BME280;10973;46.706;12.340;2023-04-06T06:12:39;87145.50;;;0.60;44.44
21623;BME280;10973;46.706;12.340;2023-04-06T06:15:09;87157.06;;;0.62;44.54
21623;BME280;10973;46.706;12.340;2023-04-06T06:17:36;87150.09;;;0.75;44.56
21623;BME280;10973;46.706;12.340;2023-04-06T06:20:08;87150.66;;;0.81;44.83
21623;BME280;10973;46.706;12.340;2023-04-06T06:22:36;87148.84;;;0.93;44.37
21623;BME280;10973;46.706;12.340;2023-04-06T06:25:04;87149.53;;;1.02;43.66
21623;BME280;10973;46.706;12.340;2023-04-06T06:27:31;87148.28;;;1.08;43.52
21623;BME280;10973;46.706;12.340;2023-04-06T06:29:58;87148.31;;;1.20;43.49
21623;BME280;10973;46.706;12.340;2023-04-06T06:32:26;87147.47;;;1.28;43.47
21623;BME280;10973;46.706;12.340;2023-04-06T06:34:53;87143.38;;;1.39;43.60
21623;BME280;10973;46.706;12.340;2023-04-06T06:37:21;87147.06;;;1.51;43.25
21623;BME280;10973;46.706;12.340;2023-04-06T06:39:48;87140.81;;;1.64;42.88
21623;BME280;10973;46.706;12.340;2023-04-06T06:42:15;87139.75;;;1.77;42.30
21623;BME280;10973;46.706;12.340;2023-04-06T06:44:42;87137.03;;;1.85;42.57
21623;BME280;10973;46.706;12.340;2023-04-06T06:47:10;87142.56;;;1.96;42.18
21623;BME280;10973;46.706;12.340;2023-04-06T06:49:37;87138.44;;;2.07;42.16
21623;BME280;10973;46.706;12.340;2023-04-06T06:52:04;87143.53;;;2.15;41.68
21623;BME280;10973;46.706;12.340;2023-04-06T06:54:31;87138.22;;;2.24;40.97
21623;BME280;10973;46.706;12.340;2023-04-06T06:56:58;87135.81;;;2.31;40.68
21623;BME280;10973;46.706;12.340;2023-04-06T06:59:26;87137.53;;;2.39;39.46
21623;BME280;10973;46.706;12.340;2023-04-06T07:01:53;87134.72;;;2.44;39.52
21623;BME280;10973;46.706;12.340;2023-04-06T07:04:20;87143.38;;;2.48;38.24
21623;BME280;10973;46.706;12.340;2023-04-06T07:06:48;87139.22;;;2.59;38.86
21623;BME280;10973;46.706;12.340;2023-04-06T07:09:15;87139.84;;;2.68;38.30
21623;BME280;10973;46.706;12.340;2023-04-06T07:11:42;87134.53;;;2.77;38.27
21623;BME280;10973;46.706;12.340;2023-04-06T07:14:10;87141.50;;;2.88;38.11
21623;BME280;10973;46.706;12.340;2023-04-06T07:16:37;87141.78;;;2.83;37.19
21623;BME280;10973;46.706;12.340;2023-04-06T07:19:11;87136.44;;;2.92;36.79
21623;BME280;10973;46.706;12.340;2023-04-06T07:21:39;87133.22;;;3.11;36.61
21623;BME280;10973;46.706;12.340;2023-04-06T07:24:06;87135.75;;;3.23;36.67
21623;BME280;10973;46.706;12.340;2023-04-06T07:26:34;87131.47;;;3.30;36.40
21623;BME280;10973;46.706;12.340;2023-04-06T07:29:01;87129.00;;;3.34;35.56
21623;BME280;10973;46.706;12.340;2023-04-06T07:31:29;87126.81;;;3.36;34.77
21623;BME280;10973;46.706;12.340;2023-04-06T07:33:56;87135.97;;;3.45;33.94
21623;BME280;10973;46.706;12.340;2023-04-06T07:36:24;87133.13;;;3.50;33.28
21623;BME280;10973;46.706;12.340;2023-04-06T07:38:51;87130.34;;;3.59;33.45
21623;BME280;10973;46.706;12.340;2023-04-06T07:41:18;87134.22;;;3.65;33.02
21623;BME280;10973;46.706;12.340;2023-04-06T07:43:46;87128.78;;;3.70;32.92
21623;BME280;10973;46.706;12.340;2023-04-06T07:46:13;87136.31;;;3.75;31.60
21623;BME280;10973;46.706;12.340;2023-04-06T07:48:40;87131.53;;;3.77;31.95
21623;BME280;10973;46.706;12.340;2023-04-06T07:51:08;87131.69;;;3.84;31.13
21623;BME280;10973;46.706;12.340;2023-04-06T07:53:35;87128.84;;;3.89;31.16
21623;BME280;10973;46.706;12.340;2023-04-06T07:56:02;87130.56;;;3.97;31.18
21623;BME280;10973;46.706;12.340;2023-04-06T07:58:29;87121.78;;;4.05;30.44
21623;BME280;10973;46.706;12.340;2023-04-06T08:00:57;87113.78;;;4.14;30.69
21623;BME280;10973;46.706;12.340;2023-04-06T08:03:24;87110.72;;;4.27;30.51
21623;BME280;10973;46.706;12.340;2023-04-06T08:05:52;87105.00;;;4.38;29.83
21623;BME280;10973;46.706;12.340;2023-04-06T08:08:20;87112.91;;;4.41;28.81
21623;BME280;10973;46.706;12.340;2023-04-06T08:10:50;87110.78;;;4.47;28.98
21623;BME280;10973;46.706;12.340;2023-04-06T08:13:17;87108.66;;;4.52;28.35
21623;BME280;10973;46.706;12.340;2023-04-06T08:15:44;87109.16;;;4.58;27.81
21623;BME280;10973;46.706;12.340;2023-04-06T08:18:12;87104.91;;;4.69;28.24
21623;BME280;10973;46.706;12.340;2023-04-06T08:20:40;87112.47;;;4.74;28.08
21623;BME280;10973;46.706;12.340;2023-04-06T08:23:07;87107.00;;;4.79;27.59
21623;BME280;10973;46.706;12.340;2023-04-06T08:25:36;87110.50;;;4.86;27.83
21623;BME280;10973;46.706;12.340;2023-04-06T08:28:04;87092.75;;;4.95;27.40
21623;BME280;10973;46.706;12.340;2023-04-06T08:30:32;87103.34;;;5.02;27.56
21623;BME280;10973;46.706;12.340;2023-04-06T08:32:59;87095.88;;;5.01;26.92
21623;BME280;10973;46.706;12.340;2023-04-06T08:35:27;87100.41;;;5.04;27.01
21623;BME280;10973;46.706;12.340;2023-04-06T08:37:54;87101.84;;;5.01;26.47
21623;BME280;10973;46.706;12.340;2023-04-06T08:40:22;87100.41;;;5.04;26.73
21623;BME280;10973;46.706;12.340;2023-04-06T08:42:55;87105.91;;;4.99;26.77
21623;BME280;10973;46.706;12.340;2023-04-06T08:45:23;87106.50;;;5.12;26.37
21623;BME280;10973;46.706;12.340;2023-04-06T08:47:52;87105.97;;;5.22;25.90
21623;BME280;10973;46.706;12.340;2023-04-06T08:50:20;87100.41;;;5.23;26.38
21623;BME280;10973;46.706;12.340;2023-04-06T08:52:49;87101.97;;;5.28;26.33
21623;BME280;10973;46.706;12.340;2023-04-06T08:55:16;87103.75;;;5.43;26.26
21623;BME280;10973;46.706;12.340;2023-04-06T08:57:45;87102.38;;;5.49;26.11
21623;BME280;10973;46.706;12.340;2023-04-06T09:00:15;87096.47;;;5.52;26.16
21623;BME280;10973;46.706;12.340;2023-04-06T09:02:45;87087.66;;;5.63;26.66
21623;BME280;10973;46.706;12.340;2023-04-06T09:05:13;87087.09;;;5.73;26.00
21623;BME280;10973;46.706;12.340;2023-04-06T09:07:40;87089.38;;;5.75;25.22
21623;BME280;10973;46.706;12.340;2023-04-06T09:10:09;87089.03;;;5.76;25.44
21623;BME280;10973;46.706;12.340;2023-04-06T09:12:36;87089.44;;;5.78;25.70
21623;BME280;10973;46.706;12.340;2023-04-06T09:15:04;87084.41;;;5.89;25.88
21623;BME280;10973;46.706;12.340;2023-04-06T09:17:32;87090.41;;;5.90;27.75
21623;BME280;10973;46.706;12.340;2023-04-06T09:20:01;87086.19;;;6.08;26.03
21623;BME280;10973;46.706;12.340;2023-04-06T09:22:37;87090.66;;;6.07;25.80
21623;BME280;10973;46.706;12.340;2023-04-06T09:25:07;87074.63;;;6.09;24.26
21623;BME280;10973;46.706;12.340;2023-04-06T09:27:37;87076.09;;;6.06;25.01
21623;BME280;10973;46.706;12.340;2023-04-06T09:32:54;87078.75;;;6.10;25.13
21623;BME280;10973;46.706;12.340;2023-04-06T09:35:23;87070.72;;;6.22;25.00
21623;BME280;10973;46.706;12.340;2023-04-06T09:37:52;87069.28;;;6.24;24.24
21623;BME280;10973;46.706;12.340;2023-04-06T09:40:20;87081.72;;;6.08;24.14
21623;BME280;10973;46.706;12.340;2023-04-06T09:42:49;87072.06;;;6.12;23.51
21623;BME280;10973;46.706;12.340;2023-04-06T09:45:16;87070.66;;;6.18;23.90
21623;BME280;10973;46.706;12.340;2023-04-06T09:47:45;87060.81;;;6.08;23.46
21623;BME280;10973;46.706;12.340;2023-04-06T09:50:14;87069.16;;;6.17;24.36
21623;BME280;10973;46.706;12.340;2023-04-06T09:52:51;87065.94;;;6.27;23.98
21623;BME280;10973;46.706;12.340;2023-04-06T09:55:39;87058.28;;;6.41;23.33
21623;BME280;10973;46.706;12.340;2023-04-06T09:58:12;87066.53;;;6.43;23.51
21623;BME280;10973;46.706;12.340;2023-04-06T10:01:12;87053.56;;;6.51;22.56
21623;BME280;10973;46.706;12.340;2023-04-06T10:04:21;87051.78;;;6.58;24.01
21623;BME280;10973;46.706;12.340;2023-04-06T10:06:52;87054.06;;;6.60;24.71
21623;BME280;10973;46.706;12.340;2023-04-06T10:09:25;87045.94;;;6.68;23.35
21623;BME280;10973;46.706;12.340;2023-04-06T10:11:58;87047.47;;;6.73;23.30
21623;BME280;10973;46.706;12.340;2023-04-06T10:14:26;87052.50;;;6.85;23.75
21623;BME280;10973;46.706;12.340;2023-04-06T10:16:54;87041.00;;;6.93;23.93
21623;BME280;10973;46.706;12.340;2023-04-06T10:19:28;87043.03;;;7.06;23.98
21623;BME280;10973;46.706;12.340;2023-04-06T10:21:59;87043.00;;;7.03;23.18
21623;BME280;10973;46.706;12.340;2023-04-06T10:24:29;87035.00;;;7.22;24.01
21623;BME280;10973;46.706;12.340;2023-04-06T10:27:03;87026.53;;;7.36;23.64
21623;BME280;10973;46.706;12.340;2023-04-06T10:29:46;87023.00;;;7.61;22.55
21623;BME280;10973;46.706;12.340;2023-04-06T10:32:13;87021.06;;;7.95;22.72
21623;BME280;10973;46.706;12.340;2023-04-06T10:34:41;87008.28;;;8.37;22.15
21623;BME280;10973;46.706;12.340;2023-04-06T10:37:16;87009.34;;;8.98;21.09
21623;BME280;10973;46.706;12.340;2023-04-06T10:39:53;87015.94;;;9.57;21.13
21623;BME280;10973;46.706;12.340;2023-04-06T10:42:37;87005.50;;;10.02;19.54
21623;BME280;10973;46.706;12.340;2023-04-06T10:45:07;87001.34;;;10.75;19.16
21623;BME280;10973;46.706;12.340;2023-04-06T10:47:41;87003.00;;;11.56;19.21
21623;BME280;10973;46.706;12.340;2023-04-06T10:50:09;87003.31;;;12.31;18.68
21623;BME280;10973;46.706;12.340;2023-04-06T10:52:39;86996.91;;;12.76;17.13
21623;BME280;10973;46.706;12.340;2023-04-06T10:55:09;86996.22;;;13.46;16.62
21623;BME280;10973;46.706;12.340;2023-04-06T10:57:36;86985.78;;;13.96;16.97
21623;BME280;10973;46.706;12.340;2023-04-06T11:00:07;86986.00;;;14.59;16.29
21623;BME280;10973;46.706;12.340;2023-04-06T11:02:38;86986.16;;;14.98;15.58
21623;BME280;10973;46.706;12.340;2023-04-06T11:05:06;86975.84;;;15.46;15.43
21623;BME280;10973;46.706;12.340;2023-04-06T11:07:34;86981.19;;;16.02;14.65
21623;BME280;10973;46.706;12.340;2023-04-06T11:10:01;86979.44;;;16.47;14.50
21623;BME280;10973;46.706;12.340;2023-04-06T11:12:41;86972.19;;;16.83;14.56
21623;BME280;10973;46.706;12.340;2023-04-06T11:15:09;86972.66;;;17.27;13.66
21623;BME280;10973;46.706;12.340;2023-04-06T11:17:37;86962.59;;;17.63;13.62
21623;BME280;10973;46.706;12.340;2023-04-06T11:20:11;86961.84;;;17.91;13.50
21623;BME280;10973;46.706;12.340;2023-04-06T11:22:51;86963.75;;;17.78;12.63
21623;BME280;10973;46.706;12.340;2023-04-06T11:25:19;86959.81;;;17.83;12.22
21623;BME280;10973;46.706;12.340;2023-04-06T11:27:47;86957.03;;;17.86;13.60
21623;BME280;10973;46.706;12.340;2023-04-06T11:30:15;86964.91;;;17.77;13.41
21623;BME280;10973;46.706;12.340;2023-04-06T11:32:44;86962.56;;;17.79;12.65
21623;BME280;10973;46.706;12.340;2023-04-06T11:35:23;86960.69;;;17.63;12.64
21623;BME280;10973;46.706;12.340;2023-04-06T11:37:51;86957.84;;;17.70;13.14
21623;BME280;10973;46.706;12.340;2023-04-06T11:40:22;86952.44;;;17.74;13.16
21623;BME280;10973;46.706;12.340;2023-04-06T11:42:55;86950.16;;;17.72;12.73
21623;BME280;10973;46.706;12.340;2023-04-06T11:45:23;86952.28;;;17.65;12.26
21623;BME280;10973;46.706;12.340;2023-04-06T11:47:59;86949.13;;;17.54;12.33
21623;BME280;10973;46.706;12.340;2023-04-06T11:50:33;86942.34;;;17.53;13.19
21623;BME280;10973;46.706;12.340;2023-04-06T11:53:01;86950.97;;;17.57;12.99
21623;BME280;10973;46.706;12.340;2023-04-06T11:55:29;86946.31;;;17.45;13.14
21623;BME280;10973;46.706;12.340;2023-04-06T11:58:03;86950.34;;;17.37;13.03
21623;BME280;10973;46.706;12.340;2023-04-06T12:00:31;86941.78;;;17.29;12.67
21623;BME280;10973;46.706;12.340;2023-04-06T12:02:58;86945.31;;;17.10;13.01
21623;BME280;10973;46.706;12.340;2023-04-06T12:05:26;86946.47;;;17.09;13.30
21623;BME280;10973;46.706;12.340;2023-04-06T12:07:53;86934.41;;;17.04;13.05
21623;BME280;10973;46.706;12.340;2023-04-06T12:10:20;86945.72;;;16.92;13.31
21623;BME280;10973;46.706;12.340;2023-04-06T12:12:47;86937.19;;;16.85;13.97
21623;BME280;10973;46.706;12.340;2023-04-06T12:15:15;86943.66;;;17.00;13.57
21623;BME280;10973;46.706;12.340;2023-04-06T12:17:42;86933.59;;;16.91;13.09
21623;BME280;10973;46.706;12.340;2023-04-06T12:20:10;86937.09;;;16.72;13.74
21623;BME280;10973;46.706;12.340;2023-04-06T12:22:52;86935.94;;;16.73;13.94
21623;BME280;10973;46.706;12.340;2023-04-06T12:25:20;86935.78;;;16.64;14.68
21623;BME280;10973;46.706;12.340;2023-04-06T12:27:47;86942.38;;;16.40;14.22
21623;BME280;10973;46.706;12.340;2023-04-06T12:30:15;86946.28;;;16.19;14.23
21623;BME280;10973;46.706;12.340;2023-04-06T12:32:42;86933.84;;;16.13;13.91
21623;BME280;10973;46.706;12.340;2023-04-06T12:35:09;86928.31;;;16.07;14.04
21623;BME280;10973;46.706;12.340;2023-04-06T12:37:37;86932.19;;;16.03;13.91
21623;BME280;10973;46.706;12.340;2023-04-06T12:40:05;86939.19;;;16.13;13.56
21623;BME280;10973;46.706;12.340;2023-04-06T12:42:32;86926.06;;;16.06;13.24
21623;BME280;10973;46.706;12.340;2023-04-06T12:44:59;86926.53;;;16.01;13.88
21623;BME280;10973;46.706;12.340;2023-04-06T12:47:27;86925.59;;;15.91;14.00
21623;BME280;10973;46.706;12.340;2023-04-06T12:49:54;86928.25;;;15.91;14.18
21623;BME280;10973;46.706;12.340;2023-04-06T12:52:21;86926.34;;;15.92;14.75
21623;BME280;10973;46.706;12.340;2023-04-06T12:54:48;86929.69;;;15.96;14.31
21623;BME280;10973;46.706;12.340;2023-04-06T12:57:17;86923.88;;;16.01;13.96
21623;BME280;10973;46.706;12.340;2023-04-06T12:59:44;86926.41;;;16.08;13.85
21623;BME280;10973;46.706;12.340;2023-04-06T13:02:12;86926.56;;;16.17;13.21
21623;BME280;10973;46.706;12.340;2023-04-06T13:04:39;86934.38;;;16.08;13.01
21623;BME280;10973;46.706;12.340;2023-04-06T13:07:06;86928.53;;;16.13;13.95